Time;durP1;ratioP1;P1;durP2;ratioP2;P2;SDS_P1;SDS_P2;PMS_P1;PMS_P2;Temp;Humidity;BMP_temperature;BMP_pressure;BME280_temperature;BME280_humidity;BME280_pressure;Samples;Min_cycle;Max_cycle;Signal;HPM_P1;HPM_P2
2020/12/15 00:01:32;;;;;;;6.20;5.60;;;;;;;7.53;74.26;100687.31;5036912;28;20171;-74
2020/12/15 00:03:58;;;;;;;5.90;5.40;;;;;;;7.49;74.57;100687.22;5037161;28;20296;-75
2020/12/15 00:06:23;;;;;;;7.13;5.73;;;;;;;7.69;73.45;100688.53;5036868;28;20185;-74
2020/12/15 00:08:49;;;;;;;6.00;5.40;;;;;;;7.59;73.62;100689.19;5036688;28;20420;-74
2020/12/15 00:11:18;;;;;;;5.73;5.23;;;;;;;7.58;73.59;100688.28;5037092;28;20483;-79
2020/12/15 00:13:46;;;;;;;5.87;5.30;;;;;;;7.59;73.94;100684.00;5036706;28;20181;-79
2020/12/15 00:16:16;;;;;;;5.70;5.20;;;;;;;7.61;73.79;100677.09;5037074;28;20413;-79
2020/12/15 00:18:42;;;;;;;5.80;5.30;;;;;;;7.59;73.64;100690.06;5036969;28;20427;-80
2020/12/15 00:21:07;;;;;;;5.77;5.20;;;;;;;7.50;74.14;100687.25;5035969;28;20795;-80
2020/12/15 00:23:32;;;;;;;6.43;5.83;;;;;;;7.58;73.84;100693.47;5041110;28;20173;-80
2020/12/15 00:25:58;;;;;;;5.40;5.00;;;;;;;7.78;72.74;100686.94;5040977;28;20224;-80
2020/12/15 00:28:23;;;;;;;5.90;5.40;;;;;;;7.48;74.01;100681.19;5040726;28;20174;-80
2020/12/15 00:30:48;;;;;;;5.70;5.30;;;;;;;7.71;72.68;100678.16;5040837;28;20170;-78
2020/12/15 00:33:14;;;;;;;5.87;5.27;;;;;;;7.51;73.65;100676.03;5040492;28;20174;-78
2020/12/15 00:35:39;;;;;;;6.93;5.57;;;;;;;7.63;73.65;100685.81;5039809;28;20170;-78
2020/12/15 00:38:04;;;;;;;6.17;5.57;;;;;;;7.50;74.01;100682.06;5040739;28;20178;-77
2020/12/15 00:40:29;;;;;;;5.90;5.40;;;;;;;7.74;72.74;100676.53;5040294;28;20182;-78
2020/12/15 00:42:55;;;;;;;6.77;6.17;;;;;;;7.59;73.36;100684.00;5040223;28;20235;-76
2020/12/15 00:45:20;;;;;;;6.03;5.53;;;;;;;7.82;72.66;100678.38;5040832;28;20446;-76
2020/12/15 00:47:46;;;;;;;6.50;5.53;;;;;;;7.65;73.33;100685.84;5039868;28;20162;-79
2020/12/15 00:50:12;;;;;;;6.37;5.37;;;;;;;7.57;73.97;100670.09;5040152;28;20178;-82
2020/12/15 00:52:38;;;;;;;6.40;5.80;;;;;;;7.56;74.85;100673.53;5040452;28;20206;-76
2020/12/15 00:55:04;;;;;;;6.83;5.90;;;;;;;7.51;74.57;100667.38;5040121;28;20470;-78
2020/12/15 00:57:29;;;;;;;5.40;4.97;;;;;;;7.35;75.62;100659.28;5039825;28;20263;-81
2020/12/15 00:59:55;;;;;;;6.40;5.53;;;;;;;7.33;75.69;100650.56;5040276;28;20170;-79
2020/12/15 01:02:20;;;;;;;6.03;5.43;;;;;;;7.32;75.85;100647.94;5039889;28;20544;-78
2020/12/15 01:04:45;;;;;;;6.37;5.77;;;;;;;7.17;76.75;100643.31;5039988;28;20170;-78
2020/12/15 01:07:11;;;;;;;6.53;5.83;;;;;;;7.50;75.67;100630.19;5040241;28;20186;-75
2020/12/15 01:09:36;;;;;;;7.20;6.50;;;;;;;7.30;76.20;100613.34;5038893;28;20174;-75
2020/12/15 01:12:14;;;;;;;7.67;6.57;;;;;;;7.47;75.66;100613.69;5039643;28;20205;-73
2020/12/15 01:14:39;;;;;;;6.57;6.00;;;;;;;6.95;76.44;100614.31;5039705;28;20158;-75
2020/12/15 01:17:07;;;;;;;6.30;5.80;;;;;;;7.08;77.52;100615.50;5039816;28;20689;-75
2020/12/15 01:19:32;;;;;;;7.50;6.83;;;;;;;7.07;77.47;100606.81;5039215;28;20181;-72
2020/12/15 01:21:57;;;;;;;8.73;6.53;;;;;;;7.05;77.24;100607.66;5039452;28;20417;-75
2020/12/15 01:24:25;;;;;;;6.87;6.17;;;;;;;7.02;77.19;100600.69;5039373;28;20653;-75
2020/12/15 01:26:50;;;;;;;7.40;6.70;;;;;;;7.01;77.67;100598.91;5039753;28;20162;-75
2020/12/15 01:29:16;;;;;;;7.10;6.40;;;;;;;7.11;77.16;100597.41;5039239;28;20418;-75
2020/12/15 01:31:41;;;;;;;7.03;6.43;;;;;;;6.98;77.15;100585.00;5039360;28;20237;-73
2020/12/15 01:34:06;;;;;;;6.93;6.33;;;;;;;7.00;77.59;100591.13;5038608;28;20453;-74
2020/12/15 01:36:32;;;;;;;7.13;6.30;;;;;;;6.94;78.03;100588.38;5039312;28;20216;-74
2020/12/15 01:38:58;;;;;;;7.27;6.63;;;;;;;7.05;77.63;100582.59;5039000;28;20392;-78
2020/12/15 01:41:23;;;;;;;6.73;6.13;;;;;;;6.86;77.41;100588.19;5039373;28;20241;-80
2020/12/15 01:43:56;;;;;;;8.33;6.13;;;;;;;6.90;77.91;100574.47;5039140;28;20174;-77
2020/12/15 01:46:22;;;;;;;7.40;6.20;;;;;;;6.97;78.18;100563.41;5038892;28;20182;-79
2020/12/15 01:48:47;;;;;;;7.33;6.60;;;;;;;6.84;78.42;100553.63;5039234;28;20752;-77
2020/12/15 01:51:13;;;;;;;7.77;6.93;;;;;;;6.79;78.26;100557.81;5038997;28;20202;-83
2020/12/15 01:53:38;;;;;;;8.57;6.23;;;;;;;6.70;78.48;100556.78;5038275;28;20268;-82
2020/12/15 01:56:04;;;;;;;7.60;6.80;;;;;;;6.64;78.34;100540.22;5039368;28;20174;-83
2020/12/15 01:58:29;;;;;;;8.93;6.77;;;;;;;6.83;78.48;100544.09;5037157;28;20595;-83
2020/12/15 02:00:55;;;;;;;6.83;6.23;;;;;;;6.68;78.34;100550.66;5037882;28;20223;-73
2020/12/15 02:03:20;;;;;;;7.43;6.70;;;;;;;6.83;77.61;100551.88;5039168;28;20177;-73
2020/12/15 02:05:45;;;;;;;7.30;6.20;;;;;;;6.74;77.89;100556.00;5038674;28;20162;-72
2020/12/15 02:08:11;;;;;;;7.07;6.33;;;;;;;6.70;78.37;100559.38;5038591;28;20174;-73
2020/12/15 02:10:36;;;;;;;6.77;6.17;;;;;;;6.73;78.21;100564.59;5038804;28;20166;-75
2020/12/15 02:13:02;;;;;;;6.70;6.10;;;;;;;7.02;77.25;100560.91;5038463;28;20205;-72
2020/12/15 02:15:27;;;;;;;7.10;5.90;;;;;;;6.86;77.78;100564.88;5038529;28;20166;-75
2020/12/15 02:17:53;;;;;;;6.77;6.10;;;;;;;6.95;77.39;100559.03;5038903;28;20178;-76
2020/12/15 02:20:18;;;;;;;7.10;6.50;;;;;;;7.00;76.68;100536.69;5038218;28;20171;-77
2020/12/15 02:22:43;;;;;;;6.70;6.00;;;;;;;6.74;77.50;100540.47;5038105;28;20178;-76
2020/12/15 02:25:09;;;;;;;6.87;6.27;;;;;;;6.74;78.05;100535.28;5038084;28;20248;-74
2020/12/15 02:27:34;;;;;;;8.10;7.30;;;;;;;6.77;78.07;100531.88;5038442;28;20166;-82
2020/12/15 02:30:00;;;;;;;6.40;5.80;;;;;;;6.63;78.46;100526.41;5038428;28;20180;-72
2020/12/15 02:32:26;;;;;;;6.60;6.03;;;;;;;6.90;77.59;100536.50;5038113;28;20296;-78
2020/12/15 02:34:55;;;;;;;6.43;5.93;;;;;;;6.87;77.36;100527.75;5038151;28;20698;-74
2020/12/15 02:37:21;;;;;;;7.27;6.27;;;;;;;6.85;77.28;100537.25;5038348;28;20257;-81
2020/12/15 02:39:46;;;;;;;7.10;6.50;;;;;;;6.90;77.05;100556.31;5037820;28;20417;-77
2020/12/15 02:42:12;;;;;;;7.07;6.43;;;;;;;6.98;77.17;100543.53;5037885;28;20180;-73
2020/12/15 02:44:37;;;;;;;6.90;6.20;;;;;;;7.08;77.00;100548.94;5038048;28;20190;-75
2020/12/15 02:47:02;;;;;;;6.70;6.00;;;;;;;7.00;76.95;100553.09;5037985;28;20178;-75
2020/12/15 02:49:27;;;;;;;7.13;6.43;;;;;;;7.19;76.04;100545.72;5037820;28;20166;-78
2020/12/15 02:51:53;;;;;;;7.53;5.87;;;;;;;6.90;76.15;100556.31;5038079;28;20512;-75
2020/12/15 02:54:18;;;;;;;6.83;6.23;;;;;;;6.84;77.09;100556.22;5037546;28;20482;-75
2020/12/15 02:56:44;;;;;;;7.20;6.43;;;;;;;7.10;76.06;100545.53;5037520;28;20241;-76
2020/12/15 02:59:09;;;;;;;6.40;5.83;;;;;;;7.12;76.01;100547.31;5037917;28;20454;-74
2020/12/15 03:01:39;;;;;;;6.90;6.30;;;;;;;6.96;76.90;100571.16;5037618;28;20178;-77
2020/12/15 03:04:04;;;;;;;6.57;5.97;;;;;;;7.00;76.50;100567.78;5037588;28;20212;-75
2020/12/15 03:06:29;;;;;;;8.40;6.50;;;;;;;6.96;76.32;100569.44;5037868;28;20420;-75
2020/12/15 03:08:55;;;;;;;7.87;6.10;;;;;;;6.89;76.90;100572.75;5037148;28;20186;-73
2020/12/15 03:11:22;;;;;;;7.03;6.43;;;;;;;6.95;76.82;100565.09;5037221;28;20516;-79
2020/12/15 03:13:47;;;;;;;7.27;6.57;;;;;;;7.15;76.20;100559.47;5037710;28;20209;-74
2020/12/15 03:16:12;;;;;;;7.40;6.70;;;;;;;7.15;76.29;100556.88;5037295;28;20496;-75
2020/12/15 03:18:38;;;;;;;6.73;6.03;;;;;;;7.23;75.51;100560.50;5037301;28;20438;-74
2020/12/15 03:21:04;;;;;;;6.60;6.00;;;;;;;7.29;74.59;100555.41;5037603;28;20167;-75
2020/12/15 03:23:30;;;;;;;6.70;6.00;;;;;;;7.39;74.98;100569.47;5037009;28;20201;-74
2020/12/15 03:25:55;;;;;;;6.30;5.73;;;;;;;7.10;75.80;100568.84;5037199;28;20818;-74
2020/12/15 03:28:21;;;;;;;6.20;5.70;;;;;;;6.97;75.96;100565.13;5037500;28;20166;-74
2020/12/15 03:30:47;;;;;;;6.40;5.90;;;;;;;7.04;76.72;100559.25;5037010;28;20284;-75
2020/12/15 03:33:12;;;;;;;7.13;6.43;;;;;;;7.16;76.25;100553.44;5036814;28;20590;-74
2020/12/15 03:35:37;;;;;;;6.93;6.20;;;;;;;6.99;76.68;100545.31;5037412;28;20170;-74
2020/12/15 03:38:03;;;;;;;6.40;5.90;;;;;;;6.98;77.00;100548.72;5036937;28;20177;-74
2020/12/15 03:40:28;;;;;;;7.10;6.43;;;;;;;6.96;77.05;100545.25;5036810;28;20464;-74
2020/12/15 03:42:53;;;;;;;7.60;6.30;;;;;;;6.95;77.30;100543.50;5037326;28;20558;-74
2020/12/15 03:45:19;;;;;;;7.37;6.60;;;;;;;6.71;77.93;100543.00;5036838;28;20178;-74
2020/12/15 03:47:45;;;;;;;7.77;7.00;;;;;;;6.85;77.84;100542.41;5036881;28;20185;-75
2020/12/15 03:50:10;;;;;;;7.83;6.43;;;;;;;6.97;77.53;100527.13;5037248;28;20413;-73
2020/12/15 03:52:36;;;;;;;6.97;6.27;;;;;;;6.66;78.04;100533.38;5036716;28;20273;-74
2020/12/15 03:55:05;;;;;;;8.40;7.60;;;;;;;6.58;78.31;100523.69;5036943;28;20215;-75
2020/12/15 03:57:31;;;;;;;7.83;7.10;;;;;;;6.71;77.76;100529.16;5037018;28;20466;-75
2020/12/15 03:59:56;;;;;;;7.60;6.90;;;;;;;6.74;77.96;100542.19;5037099;28;20828;-74
2020/12/15 04:02:21;;;;;;;7.63;6.93;;;;;;;7.10;77.20;100553.31;5036823;28;20253;-75
2020/12/15 04:04:47;;;;;;;8.03;7.23;;;;;;;7.28;76.44;100558.88;5037061;28;20166;-75
2020/12/15 04:07:12;;;;;;;7.70;6.90;;;;;;;7.29;76.35;100557.13;5036809;28;20170;-75
2020/12/15 04:09:38;;;;;;;8.23;7.37;;;;;;;7.27;76.30;100557.13;5036645;28;20259;-75
2020/12/15 04:12:03;;;;;;;7.30;6.60;;;;;;;7.54;75.19;100548.13;5037020;28;20205;-75
2020/12/15 04:14:28;;;;;;;9.73;7.23;;;;;;;7.55;75.94;100552.44;5036710;28;20182;-75
2020/12/15 04:16:53;;;;;;;9.43;7.40;;;;;;;7.52;75.49;100555.00;5036736;28;20262;-76
2020/12/15 04:19:19;;;;;;;7.83;7.03;;;;;;;7.43;76.12;100555.72;5037119;28;20209;-72
2020/12/15 04:21:44;;;;;;;8.27;7.37;;;;;;;7.40;75.98;100551.31;5036571;28;20535;-72
2020/12/15 04:24:09;;;;;;;7.73;7.03;;;;;;;7.39;76.55;100556.50;5036578;28;20226;-76
2020/12/15 04:26:35;;;;;;;7.73;6.90;;;;;;;7.44;76.33;100557.44;5037006;28;20174;-74
2020/12/15 04:29:00;;;;;;;7.43;6.83;;;;;;;7.26;76.22;100565.72;5036513;28;20217;-75
2020/12/15 04:31:29;;;;;;;8.20;7.50;;;;;;;7.45;76.15;100555.72;5036576;28;20248;-75
2020/12/15 04:33:55;;;;;;;7.17;6.47;;;;;;;7.40;76.01;100553.94;5036884;28;20185;-74
2020/12/15 04:36:21;;;;;;;10.53;7.23;;;;;;;7.52;75.32;100557.59;5036527;28;20504;-74
2020/12/15 04:38:46;;;;;;;8.00;7.30;;;;;;;7.57;75.45;100551.63;5036375;28;20173;-74
2020/12/15 04:41:11;;;;;;;8.70;7.80;;;;;;;7.52;74.92;100558.47;5036759;28;20605;-73
2020/12/15 04:43:37;;;;;;;8.07;7.13;;;;;;;7.00;76.43;100550.50;5035712;28;20174;-74
2020/12/15 04:46:03;;;;;;;7.63;6.83;;;;;;;7.38;76.25;100549.53;5035654;28;20179;-74
2020/12/15 04:48:28;;;;;;;7.23;6.53;;;;;;;7.36;75.98;100552.13;5036553;28;20159;-73
2020/12/15 04:50:58;;;;;;;9.87;6.70;;;;;;;7.50;75.18;100554.09;5035522;28;20514;-74
2020/12/15 04:53:26;;;;;;;7.60;6.80;;;;;;;7.67;75.77;100552.69;5036256;28;20174;-74
2020/12/15 04:55:54;;;;;;;7.07;6.47;;;;;;;7.48;76.39;100556.69;5036647;28;20396;-74
2020/12/15 04:58:20;;;;;;;8.20;6.70;;;;;;;7.46;76.51;100552.31;5036299;28;20753;-74
2020/12/15 05:00:46;;;;;;;9.80;7.40;;;;;;;7.52;75.95;100562.78;5036195;28;20818;-74
2020/12/15 05:03:14;;;;;;;42.97;7.80;;;;;;;7.57;75.61;100555.97;5036551;28;20427;-73
2020/12/15 05:05:39;;;;;;;7.50;6.80;;;;;;;7.27;76.28;100557.13;5035544;28;20467;-74
2020/12/15 05:08:05;;;;;;;7.97;6.97;;;;;;;7.40;76.05;100555.63;5036736;28;20417;-73
2020/12/15 05:10:30;;;;;;;7.90;7.10;;;;;;;7.39;76.42;100554.75;5039963;28;20496;-74
2020/12/15 05:12:56;;;;;;;7.50;6.80;;;;;;;7.51;75.93;100551.53;5038804;28;20244;-74
2020/12/15 05:15:21;;;;;;;7.80;7.10;;;;;;;7.43;75.99;100547.94;5039571;28;20174;-74
2020/12/15 05:17:46;;;;;;;7.57;6.87;;;;;;;7.64;75.61;100547.44;5039986;28;20170;-73
2020/12/15 05:20:25;;;;;;;7.17;6.57;;;;;;;7.60;74.92;100548.22;5039260;28;20442;-75
2020/12/15 05:22:50;;;;;;;7.90;7.20;;;;;;;7.76;75.42;100558.03;5039404;28;20269;-74
2020/12/15 05:25:23;;;;;;;8.60;7.10;;;;;;;7.61;75.54;100565.53;5039181;28;20492;-75
2020/12/15 05:27:48;;;;;;;7.80;7.00;;;;;;;7.78;75.46;100572.75;5039351;28;20186;-73
2020/12/15 05:30:14;;;;;;;7.40;6.80;;;;;;;7.81;74.72;100568.50;5039670;28;20936;-74
2020/12/15 05:32:49;;;;;;;7.40;6.80;;;;;;;7.72;75.17;100574.41;5039320;28;20218;-73
2020/12/15 05:35:15;;;;;;;8.57;7.77;;;;;;;7.85;74.74;100566.88;5039367;28;20162;-74
2020/12/15 05:37:44;;;;;;;9.07;7.77;;;;;;;7.72;74.78;100573.53;5039350;28;20467;-72
2020/12/15 05:40:10;;;;;;;8.57;7.77;;;;;;;7.81;75.17;100570.25;5039189;28;20566;-73
2020/12/15 05:42:36;;;;;;;10.17;9.27;;;;;;;7.61;75.91;100565.53;5039666;28;20437;-74
2020/12/15 05:45:03;;;;;;;10.70;9.60;;;;;;;7.74;75.46;100564.06;5039172;28;20178;-73
2020/12/15 05:47:29;;;;;;;9.30;8.43;;;;;;;7.53;76.75;100564.53;5039132;28;20413;-73
2020/12/15 05:49:55;;;;;;;9.20;8.30;;;;;;;7.73;76.50;100555.41;5039458;28;20632;-74
2020/12/15 05:52:25;;;;;;;10.33;8.73;;;;;;;7.66;76.32;100566.50;5038462;28;20252;-73
2020/12/15 05:54:51;;;;;;;8.80;8.00;;;;;;;7.71;77.03;100570.06;5038293;28;20423;-74
2020/12/15 05:57:22;;;;;;;9.00;8.13;;;;;;;7.84;76.74;100565.09;5039375;28;20441;-73
2020/12/15 05:59:47;;;;;;;8.87;8.07;;;;;;;7.81;76.12;100565.06;5038044;28;20444;-74
2020/12/15 06:02:13;;;;;;;10.20;8.17;;;;;;;7.55;77.26;100568.00;5038992;28;20402;-73
2020/12/15 06:04:39;;;;;;;9.07;8.17;;;;;;;7.49;77.54;100573.09;5039303;28;20249;-74
2020/12/15 06:07:09;;;;;;;8.60;7.80;;;;;;;7.31;78.92;100574.47;5038837;28;20770;-75
2020/12/15 06:09:35;;;;;;;9.50;8.53;;;;;;;7.31;79.60;100565.84;5038636;28;20463;-75
2020/12/15 06:12:03;;;;;;;11.20;9.23;;;;;;;7.24;78.91;100565.69;5038997;28;20427;-73
2020/12/15 06:14:28;;;;;;;9.00;8.20;;;;;;;7.72;78.44;100556.22;5034316;28;20209;-74
2020/12/15 06:16:54;;;;;;;9.97;8.97;;;;;;;7.58;78.51;100557.72;5036886;28;20503;-73
2020/12/15 06:19:22;;;;;;;9.77;8.80;;;;;;;7.83;77.73;100553.81;5037351;28;20162;-74
2020/12/15 06:21:47;;;;;;;9.73;8.83;;;;;;;7.59;78.79;100547.38;5038142;28;20181;-74
2020/12/15 06:24:22;;;;;;;11.63;10.53;;;;;;;7.75;79.05;100550.22;5038250;28;20468;-74
2020/12/15 06:26:54;;;;;;;9.87;8.87;;;;;;;7.62;78.86;100543.97;5038453;28;20177;-74
2020/12/15 06:29:35;;;;;;;9.60;8.67;;;;;;;7.84;78.24;100545.22;5038353;28;20409;-74
2020/12/15 06:32:03;;;;;;;12.40;9.77;;;;;;;7.82;77.98;100541.72;5037643;28;20458;-74
2020/12/15 06:34:30;;;;;;;10.73;8.20;;;;;;;7.82;77.85;100540.84;5038596;28;20823;-75
2020/12/15 06:36:57;;;;;;;10.23;9.33;;;;;;;7.75;78.13;100543.34;5038197;28;20417;-74
2020/12/15 06:39:24;;;;;;;9.20;8.40;;;;;;;7.63;78.31;100543.13;5037851;28;20447;-75
2020/12/15 06:42:02;;;;;;;10.40;9.50;;;;;;;7.57;78.95;100536.06;5038518;28;20409;-74
2020/12/15 06:44:37;;;;;;;10.20;9.20;;;;;;;7.61;78.45;100533.56;5038157;28;20448;-75
2020/12/15 06:47:04;;;;;;;9.30;8.50;;;;;;;7.65;78.64;100544.00;5038122;28;20461;-74
2020/12/15 06:49:31;;;;;;;9.00;8.20;;;;;;;7.81;78.63;100552.09;5036959;28;20776;-74
2020/12/15 06:51:58;;;;;;;10.13;8.67;;;;;;;7.68;77.81;100546.66;5037673;28;20497;-74
2020/12/15 06:54:31;;;;;;;11.23;8.80;;;;;;;7.88;78.04;100552.19;5038045;28;20685;-74
2020/12/15 06:57:07;;;;;;;9.10;8.30;;;;;;;7.61;77.77;100551.72;5037489;28;20425;-74
2020/12/15 06:59:36;;;;;;;10.50;9.50;;;;;;;7.75;77.78;100561.50;5037664;28;20424;-75
2020/12/15 07:02:17;;;;;;;10.23;9.23;;;;;;;8.12;77.13;100565.56;5037714;28;20511;-75
2020/12/15 07:04:47;;;;;;;10.87;8.30;;;;;;;7.85;77.45;100567.72;5037745;28;20427;-75
2020/12/15 07:07:14;;;;;;;9.00;7.73;;;;;;;7.84;77.81;100572.91;5037659;28;20395;-74
2020/12/15 07:09:39;;;;;;;9.73;8.80;;;;;;;7.86;78.44;100577.28;5036597;28;20391;-75
2020/12/15 07:12:11;;;;;;;10.10;9.10;;;;;;;7.48;78.94;100581.72;5037723;28;20892;-75
2020/12/15 07:14:37;;;;;;;9.90;8.90;;;;;;;7.66;78.73;100582.09;5036678;28;20201;-73
2020/12/15 07:17:02;;;;;;;9.50;8.57;;;;;;;7.81;78.39;100578.03;5037611;28;20713;-74
2020/12/15 07:19:27;;;;;;;10.53;8.93;;;;;;;8.01;78.41;100575.78;5037871;28;20308;-75
2020/12/15 07:21:53;;;;;;;11.57;10.23;;;;;;;7.75;78.13;100576.19;5037552;28;20430;-75
2020/12/15 07:24:18;;;;;;;10.97;8.70;;;;;;;7.81;78.64;100584.09;5037274;28;20226;-74
2020/12/15 07:26:44;;;;;;;8.67;7.80;;;;;;;7.94;77.64;100579.97;5037792;28;20182;-75
2020/12/15 07:29:09;;;;;;;9.47;8.57;;;;;;;7.95;78.08;100579.13;5037201;28;20182;-75
2020/12/15 07:31:35;;;;;;;9.73;8.87;;;;;;;7.96;78.26;100588.69;5036173;28;20439;-74
2020/12/15 07:34:14;;;;;;;9.50;8.50;;;;;;;8.12;77.40;100586.34;5037554;28;20178;-75
2020/12/15 07:36:45;;;;;;;11.40;9.30;;;;;;;7.94;78.45;100582.56;5036533;28;20182;-75
2020/12/15 07:39:10;;;;;;;10.03;9.00;;;;;;;8.07;77.68;100592.31;5037179;28;20413;-75
2020/12/15 07:41:39;;;;;;;11.07;9.07;;;;;;;7.88;77.73;100590.25;5037045;28;20530;-76
2020/12/15 07:44:08;;;;;;;9.87;8.87;;;;;;;8.05;nan;100595.75;5037167;28;20196;-76
2020/12/15 07:46:34;;;;;;;9.97;9.03;;;;;;;7.96;78.41;100578.28;5037490;28;20387;-74
2020/12/15 07:49:00;;;;;;;9.97;8.87;;;;;;;8.12;77.94;100589.84;5036842;28;20455;-74
2020/12/15 07:51:25;;;;;;;10.03;7.97;;;;;;;7.72;78.79;100592.56;5036825;28;20201;-74
2020/12/15 07:53:55;;;;;;;10.13;9.03;;;;;;;7.80;78.80;100594.44;5037145;28;20399;-74
2020/12/15 07:56:20;;;;;;;10.37;9.27;;;;;;;8.20;77.98;100584.75;5036682;28;20182;-75
2020/12/15 07:58:49;;;;;;;9.83;8.80;;;;;;;8.13;77.83;100590.69;5036621;28;20407;-75
2020/12/15 08:01:19;;;;;;;10.47;9.47;;;;;;;8.14;78.00;100589.84;5037239;28;20241;-75
2020/12/15 08:03:44;;;;;;;9.63;8.63;;;;;;;8.32;77.92;100586.69;5036888;28;20428;-75
2020/12/15 08:06:10;;;;;;;10.20;9.20;;;;;;;8.10;78.43;100586.31;5036962;28;20788;-74
2020/12/15 08:08:36;;;;;;;12.47;9.67;;;;;;;8.25;77.97;100593.50;5036311;28;20228;-76
2020/12/15 08:11:02;;;;;;;10.13;9.13;;;;;;;8.32;77.85;100589.28;5036021;28;20666;-74
2020/12/15 08:13:27;;;;;;;10.93;9.83;;;;;;;7.88;79.18;100587.66;5036853;28;20287;-74
2020/12/15 08:15:53;;;;;;;11.27;9.87;;;;;;;8.27;77.61;100586.63;5036719;28;20256;-74
2020/12/15 08:18:18;;;;;;;11.27;10.07;;;;;;;7.96;78.82;100596.47;5036888;28;20178;-74
2020/12/15 08:20:45;;;;;;;10.43;9.40;;;;;;;8.09;78.89;100593.25;5035643;28;20249;-74
2020/12/15 08:23:12;;;;;;;9.80;8.90;;;;;;;8.33;78.13;100593.63;5037169;28;20535;-76
2020/12/15 08:25:43;;;;;;;10.93;9.80;;;;;;;8.24;78.27;100600.41;5035847;28;20530;-73
2020/12/15 08:28:10;;;;;;;10.63;9.50;;;;;;;8.28;78.28;100601.34;5036709;28;20403;-75
2020/12/15 08:30:36;;;;;;;11.80;10.60;;;;;;;8.50;77.57;100604.34;5036892;28;20405;-74
2020/12/15 08:33:01;;;;;;;12.20;9.53;;;;;;;8.40;77.48;100598.97;5036343;28;20710;-74
2020/12/15 08:35:27;;;;;;;10.90;9.83;;;;;;;8.06;79.05;100598.41;5036495;28;20178;-73
2020/12/15 08:37:57;;;;;;;10.27;9.27;;;;;;;8.28;78.36;100609.16;5036611;28;20174;-73
2020/12/15 08:40:23;;;;;;;15.70;10.50;;;;;;;8.08;78.92;100622.66;5036295;28;20490;-73
2020/12/15 08:42:48;;;;;;;18.03;13.50;;;;;;;8.13;79.24;100608.88;5037662;28;20409;-73
2020/12/15 08:45:16;;;;;;;20.40;15.23;;;;;;;8.31;78.87;100608.31;5040733;28;20189;-73
2020/12/15 08:47:43;;;;;;;13.40;11.17;;;;;;;8.18;78.86;100612.44;5040313;28;20448;-73
2020/12/15 08:50:12;;;;;;;14.57;10.57;;;;;;;8.24;79.21;100602.13;5040081;28;20415;-74
2020/12/15 08:52:37;;;;;;;10.93;9.37;;;;;;;8.29;79.05;100604.81;5040447;28;20532;-75
2020/12/15 08:55:03;;;;;;;11.13;9.70;;;;;;;8.12;80.03;100612.31;5040135;28;20500;-75
2020/12/15 08:57:28;;;;;;;13.77;10.50;;;;;;;8.19;79.25;100612.44;5039988;28;20170;-75
2020/12/15 08:59:53;;;;;;;12.43;10.30;;;;;;;8.21;79.46;100607.28;5040036;28;20167;-75
2020/12/15 09:02:22;;;;;;;13.23;10.47;;;;;;;8.44;78.71;100612.84;5038348;28;20202;-74
2020/12/15 09:04:48;;;;;;;11.93;10.73;;;;;;;8.11;79.82;100620.97;5039031;28;20178;-74
2020/12/15 09:07:14;;;;;;;13.53;10.13;;;;;;;8.07;80.20;100620.88;5039264;28;20433;-74
2020/12/15 09:09:40;;;;;;;11.50;10.27;;;;;;;8.34;79.29;100614.44;5038887;28;20769;-75
2020/12/15 09:12:05;;;;;;;15.13;11.63;;;;;;;8.56;78.62;100614.81;5038994;28;20213;-74
2020/12/15 09:14:31;;;;;;;15.43;11.97;;;;;;;8.68;78.09;100615.00;5039155;28;20186;-74
2020/12/15 09:16:56;;;;;;;11.83;10.40;;;;;;;8.71;77.88;100620.25;5039802;28;20260;-74
2020/12/15 09:19:22;;;;;;;12.13;10.93;;;;;;;8.87;77.32;100616.16;5039703;28;20174;-74
2020/12/15 09:21:59;;;;;;;12.77;11.30;;;;;;;9.03;76.79;100612.03;5039236;28;20162;-74
2020/12/15 09:24:25;;;;;;;11.40;10.07;;;;;;;8.90;76.50;100610.13;5039517;28;20456;-73
2020/12/15 09:26:50;;;;;;;13.80;11.20;;;;;;;8.91;77.40;100617.94;5039633;28;20691;-75
2020/12/15 09:29:16;;;;;;;14.23;11.27;;;;;;;9.22;76.14;100617.50;5039528;28;20416;-75
2020/12/15 09:31:42;;;;;;;13.80;11.30;;;;;;;9.18;76.36;100610.50;5039267;28;20285;-75
2020/12/15 09:34:07;;;;;;;11.93;10.33;;;;;;;9.25;75.95;100609.72;5040045;28;20501;-76
2020/12/15 09:36:33;;;;;;;12.60;11.30;;;;;;;9.28;75.86;100612.34;5039403;28;20391;-75
2020/12/15 09:38:59;;;;;;;12.93;11.20;;;;;;;9.03;75.68;100621.59;5039260;28;20184;-75
2020/12/15 09:41:24;;;;;;;11.57;10.37;;;;;;;9.34;75.70;100620.25;5039844;28;20423;-74
2020/12/15 09:43:49;;;;;;;13.60;11.53;;;;;;;8.99;76.44;100625.00;5039245;28;20167;-74
2020/12/15 09:46:14;;;;;;;12.33;11.03;;;;;;;8.76;77.89;100622.91;5039255;28;20208;-72
2020/12/15 09:48:40;;;;;;;17.23;12.87;;;;;;;9.22;76.63;100620.09;5039956;28;20229;-74
2020/12/15 09:51:05;;;;;;;13.63;12.33;;;;;;;9.03;76.74;100625.03;5039091;28;20560;-74
2020/12/15 09:53:31;;;;;;;12.83;11.20;;;;;;;9.46;76.16;100611.75;5038870;28;20221;-74
2020/12/15 09:55:56;;;;;;;15.07;13.13;;;;;;;9.35;75.95;100614.22;5038655;28;20169;-73
2020/12/15 09:58:23;;;;;;;17.90;13.80;;;;;;;9.68;75.56;100605.03;5037710;28;20409;-73
2020/12/15 10:00:48;;;;;;;15.77;13.30;;;;;;;9.35;75.81;100603.81;5038824;28;20466;-73
2020/12/15 10:03:14;;;;;;;13.60;12.20;;;;;;;8.65;78.10;100607.16;5039319;28;20380;-73
2020/12/15 10:05:41;;;;;;;14.87;13.37;;;;;;;9.27;76.76;100602.84;5038825;28;20174;-72
2020/12/15 10:08:06;;;;;;;19.73;14.80;;;;;;;9.64;74.98;100597.19;5038893;28;20547;-73
2020/12/15 10:10:31;;;;;;;15.00;12.77;;;;;;;9.43;75.47;100591.75;5038880;28;20408;-73
2020/12/15 10:12:57;;;;;;;20.30;17.63;;;;;;;9.72;74.61;100599.00;5038405;28;20233;-73
2020/12/15 10:15:24;;;;;;;12.43;11.20;;;;;;;9.58;75.42;100611.00;5038550;28;20241;-73
2020/12/15 10:17:49;;;;;;;13.93;12.57;;;;;;;9.90;74.13;100613.09;5038973;28;20167;-74
2020/12/15 10:20:14;;;;;;;12.37;11.17;;;;;;;9.31;76.37;100619.34;5038481;28;21092;-75
2020/12/15 10:22:40;;;;;;;11.60;10.40;;;;;;;9.60;74.76;100615.34;5038515;28;20193;-75
2020/12/15 10:25:05;;;;;;;12.13;10.30;;;;;;;9.72;74.93;100616.38;5038523;28;20226;-75
2020/12/15 10:27:31;;;;;;;11.70;10.47;;;;;;;10.10;73.50;100621.09;5038467;28;20198;-75
2020/12/15 10:29:56;;;;;;;11.27;10.07;;;;;;;9.72;74.47;100627.66;5035206;28;20170;-75
2020/12/15 10:32:24;;;;;;;11.10;9.40;;;;;;;10.59;72.07;100625.88;5026826;28;20207;-75
2020/12/15 10:34:49;;;;;;;10.80;9.57;;;;;;;10.53;71.69;100620.66;5026353;28;20170;-75
2020/12/15 10:37:15;;;;;;;11.33;10.20;;;;;;;10.54;70.91;100611.94;5028563;28;20397;-75
2020/12/15 10:39:40;;;;;;;10.60;9.60;;;;;;;10.36;71.69;100610.94;5026364;28;20434;-76
2020/12/15 10:42:05;;;;;;;10.43;9.43;;;;;;;10.36;71.76;100605.72;5027086;28;20217;-75
2020/12/15 10:44:31;;;;;;;12.37;8.93;;;;;;;10.82;71.13;100612.16;5028323;28;20175;-76
2020/12/15 10:46:59;;;;;;;9.57;8.67;;;;;;;10.73;70.83;100612.94;5026005;28;20178;-75
2020/12/15 10:49:25;;;;;;;10.93;9.83;;;;;;;10.52;71.46;100616.28;5037773;28;20272;-76
2020/12/15 10:51:50;;;;;;;9.97;9.00;;;;;;;10.50;72.13;100620.59;5037040;28;20765;-75
2020/12/15 10:54:16;;;;;;;11.23;10.10;;;;;;;9.97;74.11;100621.81;5037741;28;20224;-75
2020/12/15 10:56:42;;;;;;;11.33;10.23;;;;;;;10.28;72.73;100625.59;5027759;28;20181;-74
2020/12/15 10:59:07;;;;;;;11.50;10.50;;;;;;;10.56;72.15;100628.47;5024972;28;20196;-76
2020/12/15 11:01:33;;;;;;;11.20;10.00;;;;;;;10.39;71.89;100624.00;5037467;28;20391;-75
2020/12/15 11:03:58;;;;;;;11.23;10.23;;;;;;;10.16;73.24;100628.09;5037732;28;20200;-76
2020/12/15 11:06:25;;;;;;;11.60;10.50;;;;;;;9.86;74.26;100634.75;5037667;28;20178;-76
2020/12/15 11:08:50;;;;;;;10.80;9.63;;;;;;;9.77;74.86;100628.56;5036642;28;20177;-76
2020/12/15 11:11:16;;;;;;;12.20;11.00;;;;;;;10.32;73.39;100635.19;5037278;28;20421;-76
2020/12/15 11:13:41;;;;;;;11.77;10.57;;;;;;;10.15;73.50;100628.94;5037076;28;20245;-76
2020/12/15 11:16:06;;;;;;;12.33;11.13;;;;;;;10.41;73.04;100632.69;5037235;28;20187;-77
2020/12/15 11:18:32;;;;;;;11.27;10.17;;;;;;;10.19;73.04;100628.09;5037304;28;20194;-76
2020/12/15 11:20:57;;;;;;;11.50;10.30;;;;;;;10.31;73.44;100625.66;5037570;28;20232;-77
2020/12/15 11:23:22;;;;;;;11.37;10.27;;;;;;;10.37;73.14;100633.53;5037301;28;20232;-77